createdAt,value
2022-09-24T00:00:56.417Z,100.00
2022-09-24T00:01:56.493Z,100.00
2022-09-24T00:02:56.515Z,100.00
2022-09-24T00:03:56.476Z,100.00
2022-09-24T00:04:56.481Z,100.00
2022-09-24T00:05:56.528Z,100.00
2022-09-24T00:06:56.500Z,100.00
2022-09-24T00:07:56.498Z,100.00
2022-09-24T00:08:56.532Z,100.00
2022-09-24T00:09:56.545Z,100.00
2022-09-24T00:10:56.578Z,100.00
2022-09-24T00:11:56.569Z,100.00
2022-09-24T00:12:56.562Z,100.00
2022-09-24T00:13:56.648Z,100.00
2022-09-24T00:14:56.641Z,100.00
2022-09-24T00:15:56.631Z,100.00
2022-09-24T00:16:56.603Z,100.00
2022-09-24T00:17:56.624Z,100.00
2022-09-24T00:18:56.658Z,100.00
2022-09-24T00:19:56.675Z,100.00
2022-09-24T00:20:56.698Z,100.00
2022-09-24T00:21:56.673Z,100.00
2022-09-24T00:22:56.698Z,100.00
2022-09-24T00:23:56.738Z,100.00
2022-09-24T00:24:56.723Z,100.00
2022-09-24T00:25:56.727Z,100.00
2022-09-24T00:26:56.736Z,100.00
2022-09-24T00:27:56.733Z,100.00
2022-09-24T00:28:56.783Z,100.00
2022-09-24T00:29:56.778Z,100.00
2022-09-24T00:30:56.805Z,100.00
2022-09-24T00:31:56.901Z,100.00
2022-09-24T00:32:56.824Z,100.00
2022-09-24T00:33:56.859Z,100.00
2022-09-24T00:34:56.855Z,100.00
2022-09-24T00:35:56.903Z,100.00
2022-09-24T00:36:56.869Z,100.00
2022-09-24T00:37:56.865Z,100.00
2022-09-24T00:38:56.901Z,100.00
2022-09-24T00:39:56.920Z,100.00
2022-09-24T00:40:56.968Z,100.00
2022-09-24T00:41:56.927Z,100.00
2022-09-24T00:42:56.935Z,100.00
2022-09-24T00:43:56.947Z,100.00
2022-09-24T00:44:56.978Z,100.00
2022-09-24T00:45:56.986Z,100.00
2022-09-24T00:46:57.115Z,100.00
2022-09-24T00:47:56.999Z,100.00
2022-09-24T00:48:56.992Z,100.00
2022-09-24T00:49:57.062Z,100.00
2022-09-24T00:50:57.030Z,100.00
2022-09-24T00:51:57.047Z,100.00
2022-09-24T00:52:57.110Z,100.00
2022-09-24T00:53:57.068Z,100.00
2022-09-24T00:54:57.074Z,100.00
2022-09-24T00:55:57.071Z,100.00
2022-09-24T00:56:57.099Z,100.00
2022-09-24T00:57:57.097Z,100.00
2022-09-24T00:58:57.122Z,100.00
2022-09-24T00:59:57.140Z,100.00
2022-09-24T01:00:57.196Z,100.00
2022-09-24T01:01:57.381Z,100.00
2022-09-24T01:02:57.176Z,100.00
2022-09-24T01:03:57.180Z,100.00
2022-09-24T01:04:57.209Z,100.00
2022-09-24T01:05:57.181Z,100.00
2022-09-24T01:06:57.290Z,100.00
2022-09-24T01:07:57.236Z,100.00
2022-09-24T01:08:57.240Z,100.00
2022-09-24T01:09:57.312Z,100.00
2022-09-24T01:10:57.332Z,100.00
2022-09-24T01:11:57.264Z,100.00
2022-09-24T01:12:57.298Z,100.00
2022-09-24T01:13:57.305Z,100.00
2022-09-24T01:14:57.330Z,100.00
2022-09-24T01:15:57.429Z,100.00
2022-09-24T01:16:57.337Z,100.00
2022-09-24T01:17:57.380Z,100.00
2022-09-24T01:18:57.376Z,100.00
2022-09-24T01:19:57.360Z,100.00
2022-09-24T01:20:57.375Z,100.00
2022-09-24T01:21:57.456Z,100.00
2022-09-24T01:22:57.408Z,100.00
2022-09-24T01:23:57.402Z,100.00
2022-09-24T01:24:57.454Z,100.00
2022-09-24T01:25:57.453Z,100.00
2022-09-24T01:26:57.456Z,100.00
2022-09-24T01:27:57.490Z,100.00
2022-09-24T01:28:57.477Z,100.00
2022-09-24T01:29:57.497Z,100.00
2022-09-24T01:30:57.519Z,100.00
2022-09-24T01:31:57.644Z,100.00
2022-09-24T01:32:57.509Z,100.00
2022-09-24T01:33:57.547Z,100.00
2022-09-24T01:34:57.588Z,100.00
2022-09-24T01:35:57.578Z,100.00
2022-09-24T01:36:57.653Z,100.00
2022-09-24T01:37:57.584Z,100.00
2022-09-24T01:38:57.641Z,100.00
2022-09-24T01:39:57.633Z,100.00
2022-09-24T01:40:57.656Z,100.00
2022-09-24T01:41:57.651Z,100.00
2022-09-24T01:42:57.667Z,100.00
2022-09-24T01:43:57.663Z,100.00
2022-09-24T01:44:57.683Z,100.00
2022-09-24T01:45:57.677Z,100.00
2022-09-24T01:46:57.813Z,100.00
2022-09-24T01:47:57.727Z,100.00
2022-09-24T01:48:57.721Z,100.00
2022-09-24T01:49:57.747Z,100.00
2022-09-24T01:50:57.776Z,100.00
2022-09-24T01:51:57.747Z,100.00
2022-09-24T01:52:57.762Z,100.00
2022-09-24T01:53:57.777Z,100.00
2022-09-24T01:54:57.810Z,100.00
2022-09-24T01:55:57.791Z,100.00
2022-09-24T01:56:57.845Z,100.00
2022-09-24T01:57:57.831Z,100.00
2022-09-24T01:58:57.875Z,100.00
2022-09-24T01:59:57.855Z,100.00
2022-09-24T02:00:57.973Z,100.00
2022-09-24T02:01:57.913Z,100.00
2022-09-24T02:02:57.904Z,100.00
2022-09-24T02:03:57.886Z,100.00
2022-09-24T02:04:57.940Z,100.00
2022-09-24T02:05:57.927Z,100.00
2022-09-24T02:06:57.914Z,100.00
2022-09-24T02:07:57.942Z,100.00
2022-09-24T02:08:57.966Z,100.00
2022-09-24T02:09:57.976Z,100.00
2022-09-24T02:10:58.055Z,100.00
2022-09-24T02:11:57.987Z,100.00
2022-09-24T02:12:58.026Z,100.00
2022-09-24T02:13:58.065Z,100.00
2022-09-24T02:14:58.106Z,100.00
2022-09-24T02:15:58.074Z,100.00
2022-09-24T02:16:58.051Z,100.00
2022-09-24T02:17:58.095Z,100.00
2022-09-24T02:18:58.077Z,100.00
2022-09-24T02:19:58.120Z,100.00
2022-09-24T02:20:58.097Z,100.00
2022-09-24T02:21:58.128Z,100.00
2022-09-24T02:22:58.116Z,100.00
2022-09-24T02:23:58.126Z,100.00
2022-09-24T02:24:58.178Z,100.00
2022-09-24T02:25:58.177Z,100.00
2022-09-24T02:26:58.154Z,100.00
2022-09-24T02:27:58.193Z,100.00
2022-09-24T02:28:58.180Z,100.00
2022-09-24T02:29:58.216Z,100.00
2022-09-24T02:30:58.255Z,100.00
2022-09-24T02:31:58.287Z,100.00
2022-09-24T02:32:58.260Z,100.00
2022-09-24T02:33:58.278Z,100.00
2022-09-24T02:34:58.301Z,100.00
2022-09-24T02:35:58.267Z,100.00
2022-09-24T02:36:58.291Z,100.00
2022-09-24T02:38:00.727Z,100.00
2022-09-24T02:38:58.311Z,100.00
2022-09-24T02:39:58.310Z,100.00
2022-09-24T02:40:58.394Z,100.00
2022-09-24T02:41:58.333Z,100.00
2022-09-24T02:42:58.308Z,100.00
2022-09-24T02:43:58.332Z,100.00
2022-09-24T02:44:58.323Z,100.00
2022-09-24T02:45:58.319Z,100.00
2022-09-24T02:46:58.464Z,100.00
2022-09-24T02:47:58.340Z,100.00
2022-09-24T02:48:58.339Z,100.00
2022-09-24T02:49:58.337Z,100.00
2022-09-24T02:50:58.327Z,100.00
2022-09-24T02:51:58.321Z,100.00
2022-09-24T02:52:58.310Z,100.00
2022-09-24T02:53:58.346Z,100.00
2022-09-24T02:54:58.342Z,100.00
2022-09-24T02:55:58.313Z,100.00
2022-09-24T02:56:58.327Z,100.00
2022-09-24T02:57:58.324Z,100.00
2022-09-24T02:58:58.389Z,100.00
2022-09-24T02:59:58.330Z,100.00
2022-09-24T03:00:58.412Z,100.00
2022-09-24T03:01:58.490Z,100.00
2022-09-24T03:02:58.397Z,100.00
2022-09-24T03:03:58.332Z,100.00
2022-09-24T03:04:58.325Z,100.00
2022-09-24T03:05:58.332Z,100.00
2022-09-24T03:06:58.332Z,100.00
2022-09-24T03:07:58.314Z,100.00
2022-09-24T03:08:58.388Z,100.00
2022-09-24T03:09:58.387Z,100.00
2022-09-24T03:10:58.322Z,100.00
2022-09-24T03:11:58.349Z,100.00
2022-09-24T03:12:58.347Z,100.00
2022-09-24T03:13:58.348Z,100.00
2022-09-24T03:14:58.388Z,100.00
2022-09-24T03:15:58.395Z,100.00
2022-09-24T03:16:58.342Z,100.00
2022-09-24T03:17:58.333Z,100.00
2022-09-24T03:18:58.338Z,100.00
2022-09-24T03:19:58.381Z,100.00
2022-09-24T03:20:58.330Z,100.00
2022-09-24T03:21:58.361Z,100.00
2022-09-24T03:22:58.393Z,100.00
2022-09-24T03:23:58.354Z,100.00
2022-09-24T03:24:58.370Z,100.00
2022-09-24T03:25:58.979Z,100.00
2022-09-24T03:26:58.366Z,100.00
2022-09-24T03:27:58.389Z,100.00
2022-09-24T03:28:58.376Z,100.00
2022-09-24T03:29:58.388Z,100.00
2022-09-24T03:30:58.502Z,100.00
2022-09-24T03:31:58.396Z,100.00
2022-09-24T03:32:58.364Z,100.00
2022-09-24T03:33:58.367Z,100.00
2022-09-24T03:34:58.370Z,100.00
2022-09-24T03:35:58.369Z,100.00
2022-09-24T03:36:58.357Z,100.00
2022-09-24T03:37:58.353Z,100.00
2022-09-24T03:39:58.422Z,100.00
2022-09-24T03:40:58.443Z,100.00
2022-09-24T03:41:58.369Z,100.00
2022-09-24T03:42:58.407Z,100.00
2022-09-24T03:43:58.391Z,100.00
2022-09-24T03:44:58.393Z,100.00
2022-09-24T03:45:58.365Z,100.00
2022-09-24T03:46:58.396Z,100.00
2022-09-24T03:47:58.439Z,100.00
2022-09-24T03:48:58.394Z,100.00
2022-09-24T03:49:58.382Z,100.00
2022-09-24T03:50:58.443Z,100.00
2022-09-24T03:51:58.397Z,100.00
2022-09-24T03:52:58.379Z,100.00
2022-09-24T03:53:58.385Z,100.00
2022-09-24T03:54:58.410Z,100.00
2022-09-24T03:55:58.391Z,100.00
2022-09-24T03:56:58.390Z,100.00
2022-09-24T03:57:58.403Z,100.00
2022-09-24T03:58:58.415Z,100.00
2022-09-24T03:59:58.418Z,100.00
2022-09-24T04:00:58.453Z,100.00
2022-09-24T04:01:58.454Z,100.00
2022-09-24T04:02:58.436Z,100.00
2022-09-24T04:03:58.389Z,100.00
2022-09-24T04:04:58.414Z,100.00
2022-09-24T04:05:58.423Z,100.00
2022-09-24T04:06:58.411Z,100.00
2022-09-24T04:07:58.406Z,100.00
2022-09-24T04:08:58.388Z,100.00
2022-09-24T04:10:01.263Z,100.00
2022-09-24T04:10:58.402Z,100.00
2022-09-24T04:11:58.416Z,100.00
2022-09-24T04:12:58.398Z,100.00
2022-09-24T04:13:58.415Z,100.00
2022-09-24T04:14:58.412Z,100.00
2022-09-24T04:15:58.503Z,100.00
2022-09-24T04:16:58.406Z,100.00
2022-09-24T04:17:58.416Z,100.00
2022-09-24T04:18:58.429Z,100.00
2022-09-24T04:19:58.411Z,100.00
2022-09-24T04:20:58.427Z,100.00
2022-09-24T04:21:58.412Z,100.00
2022-09-24T04:22:58.408Z,100.00
2022-09-24T04:23:58.415Z,100.00
2022-09-24T04:24:58.401Z,100.00
2022-09-24T04:25:58.424Z,100.00
2022-09-24T04:26:58.409Z,100.00
2022-09-24T04:27:58.421Z,100.00
2022-09-24T04:28:58.423Z,100.00
2022-09-24T04:29:58.440Z,100.00
2022-09-24T04:30:58.566Z,100.00
2022-09-24T04:31:58.434Z,100.00
2022-09-24T04:32:58.457Z,100.00
2022-09-24T04:33:58.457Z,100.00
2022-09-24T04:34:58.482Z,100.00
2022-09-24T04:35:58.451Z,100.00
2022-09-24T04:36:58.435Z,100.00
2022-09-24T04:37:58.442Z,100.00
2022-09-24T04:38:58.430Z,100.00
2022-09-24T04:39:58.654Z,100.00
2022-09-24T04:40:58.569Z,100.00
2022-09-24T04:41:58.446Z,100.00
2022-09-24T04:42:58.488Z,100.00
2022-09-24T04:43:58.426Z,100.00
2022-09-24T04:44:58.430Z,100.00
2022-09-24T04:45:58.443Z,100.00
2022-09-24T04:46:58.467Z,100.00
2022-09-24T04:47:58.437Z,100.00
2022-09-24T04:48:58.456Z,100.00
2022-09-24T04:49:58.447Z,100.00
2022-09-24T04:50:58.439Z,100.00
2022-09-24T04:51:58.460Z,100.00
2022-09-24T04:52:58.437Z,100.00
2022-09-24T04:53:58.462Z,100.00
2022-09-24T04:54:58.494Z,100.00
2022-09-24T04:55:58.449Z,100.00
2022-09-24T04:56:58.466Z,100.00
2022-09-24T04:57:58.463Z,100.00
2022-09-24T04:58:58.451Z,100.00
2022-09-24T04:59:58.479Z,100.00
2022-09-24T05:00:58.452Z,100.00
2022-09-24T05:01:58.552Z,100.00
2022-09-24T05:02:58.500Z,100.00
2022-09-24T05:03:58.443Z,100.00
2022-09-24T05:04:58.447Z,100.00
2022-09-24T05:05:58.468Z,100.00
2022-09-24T05:06:58.449Z,100.00
2022-09-24T05:07:58.481Z,100.00
2022-09-24T05:08:58.476Z,100.00
2022-09-24T05:09:58.442Z,100.00
2022-09-24T05:10:58.502Z,100.00
2022-09-24T05:11:58.449Z,100.00
2022-09-24T05:12:58.470Z,100.00
2022-09-24T05:13:58.464Z,100.00
2022-09-24T05:14:58.464Z,100.00
2022-09-24T05:15:58.469Z,100.00
2022-09-24T05:16:58.445Z,100.00
2022-09-24T05:17:58.471Z,100.00
2022-09-24T05:18:58.480Z,100.00
2022-09-24T05:19:58.475Z,100.00
2022-09-24T05:20:58.477Z,100.00
2022-09-24T05:21:58.440Z,100.00
2022-09-24T05:22:58.482Z,100.00
2022-09-24T05:23:58.491Z,100.00
2022-09-24T05:24:58.479Z,100.00
2022-09-24T05:25:58.487Z,100.00
2022-09-24T05:26:58.453Z,100.00
2022-09-24T05:27:58.478Z,100.00
2022-09-24T05:28:58.490Z,100.00
2022-09-24T05:29:58.491Z,100.00
2022-09-24T05:30:58.556Z,100.00
2022-09-24T05:31:58.485Z,100.00
2022-09-24T05:32:58.498Z,100.00
2022-09-24T05:33:58.476Z,100.00
2022-09-24T05:34:58.478Z,100.00
2022-09-24T05:35:58.488Z,100.00
2022-09-24T05:36:58.488Z,100.00
2022-09-24T05:37:58.480Z,100.00
2022-09-24T05:38:58.519Z,100.00
2022-09-24T05:39:58.473Z,100.00
2022-09-24T05:40:58.621Z,100.00
2022-09-24T05:41:58.487Z,100.00
2022-09-24T05:42:58.492Z,100.00
2022-09-24T05:43:58.590Z,100.00
2022-09-24T05:44:58.495Z,100.00
2022-09-24T05:45:58.522Z,100.00
2022-09-24T05:46:58.523Z,100.00
2022-09-24T05:47:58.508Z,100.00
2022-09-24T05:48:58.487Z,100.00
2022-09-24T05:49:58.505Z,100.00
2022-09-24T05:50:58.486Z,100.00
2022-09-24T05:51:58.527Z,100.00
2022-09-24T05:52:58.514Z,100.00
2022-09-24T05:53:58.518Z,100.00
2022-09-24T05:54:58.537Z,100.00
2022-09-24T05:55:58.526Z,100.00
2022-09-24T05:56:58.512Z,100.00
2022-09-24T05:57:58.564Z,100.00
2022-09-24T05:58:58.533Z,100.00
2022-09-24T05:59:58.509Z,100.00
2022-09-24T06:00:58.507Z,100.00
2022-09-24T06:01:58.508Z,100.00
2022-09-24T06:02:58.554Z,100.00
2022-09-24T06:03:58.533Z,100.00
2022-09-24T06:04:58.543Z,100.00
2022-09-24T06:05:58.543Z,100.00
2022-09-24T06:06:58.518Z,100.00
2022-09-24T06:07:58.513Z,100.00
2022-09-24T06:08:58.499Z,100.00
2022-09-24T06:09:58.501Z,100.00
2022-09-24T06:10:58.523Z,100.00
2022-09-24T06:11:58.508Z,100.00
2022-09-24T06:12:58.530Z,100.00
2022-09-24T06:13:58.526Z,100.00
2022-09-24T06:14:58.527Z,100.00
2022-09-24T06:15:58.613Z,100.00
2022-09-24T06:16:58.545Z,100.00
2022-09-24T06:17:58.533Z,100.00
2022-09-24T06:18:58.512Z,100.00
2022-09-24T06:19:58.582Z,100.00
2022-09-24T06:20:58.548Z,100.00
2022-09-24T06:21:58.594Z,100.00
2022-09-24T06:22:58.556Z,100.00
2022-09-24T06:23:58.536Z,100.00
2022-09-24T06:24:58.515Z,100.00
2022-09-24T06:25:58.534Z,100.00
2022-09-24T06:26:58.516Z,100.00
2022-09-24T06:27:58.520Z,100.00
2022-09-24T06:29:03.771Z,100.00
2022-09-24T06:29:58.546Z,100.00
2022-09-24T06:30:58.602Z,100.00
2022-09-24T06:31:58.566Z,100.00
2022-09-24T06:32:58.546Z,100.00
2022-09-24T06:33:58.538Z,100.00
2022-09-24T06:34:59.293Z,100.00
2022-09-24T06:35:58.551Z,100.00
2022-09-24T06:36:58.617Z,100.00
2022-09-24T06:37:58.559Z,100.00
2022-09-24T06:38:58.575Z,100.00
2022-09-24T06:39:58.542Z,100.00
2022-09-24T06:40:58.579Z,100.00
2022-09-24T06:41:58.553Z,100.00
2022-09-24T06:42:58.544Z,100.00
2022-09-24T06:43:58.621Z,100.00
2022-09-24T06:44:58.541Z,100.00
2022-09-24T06:45:58.576Z,100.00
2022-09-24T06:46:58.664Z,100.00
2022-09-24T06:47:58.540Z,100.00
2022-09-24T06:48:58.630Z,100.00
2022-09-24T06:49:58.554Z,100.00
2022-09-24T06:50:58.613Z,100.00
2022-09-24T06:51:58.625Z,100.00
2022-09-24T06:52:58.578Z,100.00
2022-09-24T06:53:58.639Z,100.00
2022-09-24T06:54:58.589Z,100.00
2022-09-24T06:55:58.571Z,100.00
2022-09-24T06:56:58.554Z,100.00
2022-09-24T06:57:58.585Z,100.00
2022-09-24T06:58:58.580Z,100.00
2022-09-24T06:59:58.586Z,100.00
2022-09-24T07:00:58.728Z,100.00
2022-09-24T07:01:58.654Z,100.00
2022-09-24T07:02:58.556Z,100.00
2022-09-24T07:03:58.583Z,100.00
2022-09-24T07:04:58.633Z,100.00
2022-09-24T07:05:58.599Z,100.00
2022-09-24T07:06:58.577Z,100.00
2022-09-24T07:07:58.580Z,100.00
2022-09-24T07:08:58.648Z,100.00
2022-09-24T07:09:58.600Z,100.00
2022-09-24T07:10:58.595Z,100.00
2022-09-24T07:11:58.585Z,100.00
2022-09-24T07:12:58.638Z,100.00
2022-09-24T07:13:58.575Z,100.00
2022-09-24T07:14:58.632Z,100.00
2022-09-24T07:15:58.618Z,100.00
2022-09-24T07:16:58.597Z,100.00
2022-09-24T07:17:58.644Z,100.00
2022-09-24T07:18:58.593Z,100.00
2022-09-24T07:19:58.593Z,100.00
2022-09-24T07:21:01.743Z,100.00
2022-09-24T07:21:58.593Z,100.00
2022-09-24T07:22:58.616Z,100.00
2022-09-24T07:23:58.869Z,100.00
2022-09-24T07:24:58.678Z,100.00
2022-09-24T07:25:58.657Z,100.00
2022-09-24T07:26:58.606Z,100.00
2022-09-24T07:27:58.607Z,100.00
2022-09-24T07:28:58.599Z,100.00
2022-09-24T07:29:58.599Z,100.00
2022-09-24T07:30:58.818Z,100.00
2022-09-24T07:31:58.613Z,100.00
2022-09-24T07:32:58.640Z,100.00
2022-09-24T07:33:58.618Z,100.00
2022-09-24T07:34:58.595Z,100.00
2022-09-24T07:35:58.682Z,100.00
2022-09-24T07:36:58.599Z,100.00
2022-09-24T07:37:58.623Z,100.00
2022-09-24T07:38:58.606Z,100.00
2022-09-24T07:39:58.606Z,100.00
2022-09-24T07:40:58.649Z,100.00
2022-09-24T07:41:58.620Z,100.00
2022-09-24T07:42:58.602Z,100.00
2022-09-24T07:43:58.614Z,100.00
2022-09-24T07:44:58.612Z,100.00
2022-09-24T07:45:58.621Z,100.00
2022-09-24T07:46:58.686Z,100.00
2022-09-24T07:47:58.668Z,100.00
2022-09-24T07:48:58.676Z,100.00
2022-09-24T07:49:58.634Z,100.00
2022-09-24T07:50:58.662Z,100.00
2022-09-24T07:51:58.636Z,100.00
2022-09-24T07:52:58.635Z,100.00
2022-09-24T07:53:58.624Z,100.00
2022-09-24T07:54:58.640Z,100.00
2022-09-24T07:55:58.697Z,100.00
2022-09-24T07:56:58.646Z,100.00
2022-09-24T07:57:58.720Z,100.00
2022-09-24T07:58:58.618Z,100.00
2022-09-24T07:59:58.647Z,100.00
2022-09-24T08:00:58.655Z,100.00
2022-09-24T08:01:58.705Z,100.00
2022-09-24T08:02:58.639Z,100.00
2022-09-24T08:03:58.893Z,100.00
2022-09-24T08:04:58.644Z,100.00
2022-09-24T08:05:58.674Z,100.00
2022-09-24T08:06:58.698Z,100.00
2022-09-24T08:07:58.705Z,100.00
2022-09-24T08:08:58.631Z,100.00
2022-09-24T08:09:58.683Z,100.00
2022-09-24T08:10:58.680Z,100.00
2022-09-24T08:11:58.642Z,100.00
2022-09-24T08:12:58.656Z,100.00
2022-09-24T08:13:58.849Z,100.00
2022-09-24T08:14:58.638Z,100.00
2022-09-24T08:15:58.672Z,100.00
2022-09-24T08:16:58.637Z,100.00
2022-09-24T08:17:58.644Z,100.00
2022-09-24T08:18:58.678Z,100.00
2022-09-24T08:19:58.715Z,100.00
2022-09-24T08:20:58.665Z,100.00
2022-09-24T08:21:58.742Z,100.00
2022-09-24T08:22:58.667Z,100.00
2022-09-24T08:23:58.675Z,100.00
2022-09-24T08:24:58.664Z,100.00
2022-09-24T08:25:58.684Z,100.00
2022-09-24T08:26:58.676Z,100.00
2022-09-24T08:27:58.681Z,100.00
2022-09-24T08:28:58.654Z,100.00
2022-09-24T08:29:58.676Z,100.00
2022-09-24T08:30:58.747Z,100.00
2022-09-24T08:31:58.669Z,100.00
2022-09-24T08:32:58.665Z,100.00
2022-09-24T08:33:58.656Z,100.00
2022-09-24T08:34:58.680Z,100.00
2022-09-24T08:35:58.666Z,100.00
2022-09-24T08:36:58.675Z,100.00
2022-09-24T08:37:58.733Z,100.00
2022-09-24T08:38:58.695Z,100.00
2022-09-24T08:39:58.733Z,100.00
2022-09-24T08:41:02.101Z,100.00
2022-09-24T08:41:58.703Z,100.00
2022-09-24T08:42:58.686Z,100.00
2022-09-24T08:43:58.664Z,100.00
2022-09-24T08:44:58.738Z,100.00
2022-09-24T08:45:58.875Z,100.00
2022-09-24T08:46:58.694Z,100.00
2022-09-24T08:47:58.716Z,100.00
2022-09-24T08:48:58.687Z,100.00
2022-09-24T08:49:58.695Z,100.00
2022-09-24T08:50:58.708Z,100.00
2022-09-24T08:51:58.717Z,100.00
2022-09-24T08:52:58.693Z,100.00
2022-09-24T08:53:58.737Z,100.00
2022-09-24T08:54:58.759Z,100.00
2022-09-24T08:55:58.766Z,100.00
2022-09-24T08:56:58.675Z,100.00
2022-09-24T08:57:58.697Z,100.00
2022-09-24T08:59:37.429Z,100.00
2022-09-24T09:00:37.428Z,100.00
2022-09-24T09:01:37.463Z,100.00
2022-09-24T09:02:37.539Z,100.00
2022-09-24T09:03:37.434Z,100.00
2022-09-24T09:04:37.418Z,100.00
2022-09-24T09:05:37.450Z,100.00
2022-09-24T09:06:37.434Z,100.00
2022-09-24T09:07:37.411Z,100.00
2022-09-24T09:08:50.447Z,100.00
2022-09-24T09:09:37.431Z,100.00
2022-09-24T09:10:37.430Z,100.00
2022-09-24T09:11:37.420Z,100.00
2022-09-24T09:12:37.427Z,100.00
2022-09-24T09:13:37.441Z,100.00
2022-09-24T09:14:41.147Z,100.00
2022-09-24T09:15:37.507Z,100.00
2022-09-24T09:16:37.417Z,100.00
2022-09-24T09:17:37.451Z,100.00
2022-09-24T09:18:37.446Z,100.00
2022-09-24T09:19:37.446Z,100.00
2022-09-24T09:20:37.448Z,100.00
2022-09-24T09:21:37.452Z,100.00
2022-09-24T09:22:37.449Z,100.00
2022-09-24T09:23:37.442Z,100.00
2022-09-24T09:24:37.490Z,100.00
2022-09-24T09:25:37.460Z,100.00
2022-09-24T09:26:37.456Z,100.00
2022-09-24T09:27:37.465Z,100.00
2022-09-24T09:28:37.455Z,100.00
2022-09-24T09:29:37.463Z,100.00
2022-09-24T09:30:37.466Z,100.00
2022-09-24T09:31:37.531Z,100.00
2022-09-24T09:32:37.475Z,100.00
2022-09-24T09:33:37.467Z,100.00
2022-09-24T09:34:37.455Z,100.00
2022-09-24T09:35:37.458Z,100.00
2022-09-24T09:36:37.602Z,100.00
2022-09-24T09:37:37.618Z,100.00
2022-09-24T09:38:37.616Z,100.00
2022-09-24T09:39:37.633Z,100.00
2022-09-24T09:40:37.697Z,100.00
2022-09-24T09:41:37.661Z,100.00
2022-09-24T09:42:37.667Z,100.00
2022-09-24T09:43:37.683Z,100.00
2022-09-24T09:44:37.713Z,100.00
2022-09-24T09:45:37.720Z,100.00
2022-09-24T09:46:37.794Z,100.00
2022-09-24T09:47:37.745Z,100.00
2022-09-24T09:48:37.743Z,100.00
2022-09-24T09:49:37.758Z,100.00
2022-09-24T09:50:37.786Z,100.00
2022-09-24T09:51:37.797Z,100.00
2022-09-24T09:52:37.794Z,100.00
2022-09-24T09:53:37.800Z,100.00
2022-09-24T09:54:37.831Z,100.00
2022-09-24T09:55:37.835Z,100.00
2022-09-24T09:56:37.845Z,100.00
2022-09-24T09:57:37.845Z,100.00
2022-09-24T09:58:37.866Z,100.00
2022-09-24T09:59:37.882Z,100.00
2022-09-24T10:00:37.903Z,100.00
2022-09-24T10:01:37.901Z,100.00
2022-09-24T10:02:37.979Z,100.00
2022-09-24T10:03:37.990Z,100.00
2022-09-24T10:04:37.918Z,100.00
2022-09-24T10:05:37.979Z,100.00
2022-09-24T10:06:37.995Z,100.00
2022-09-24T10:07:37.972Z,100.00
2022-09-24T10:08:37.989Z,100.00
2022-09-24T10:09:37.993Z,100.00
2022-09-24T10:10:38.039Z,100.00
2022-09-24T10:11:38.028Z,100.00
2022-09-24T10:12:38.040Z,100.00
2022-09-24T10:13:38.049Z,100.00
2022-09-24T10:14:38.066Z,100.00
2022-09-24T10:15:43.163Z,100.00
2022-09-24T10:16:38.201Z,100.00
2022-09-24T10:17:38.075Z,100.00
2022-09-24T10:18:38.089Z,100.00
2022-09-24T10:19:38.077Z,100.00
2022-09-24T10:20:38.088Z,100.00
2022-09-24T10:21:38.093Z,100.00
2022-09-24T10:22:38.082Z,91.68
2022-09-24T10:23:38.098Z,84.21
2022-09-24T10:24:38.135Z,86.87
2022-09-24T10:25:38.101Z,90.31
2022-09-24T10:26:42.389Z,91.12
2022-09-24T10:27:38.091Z,100.00
2022-09-24T10:28:38.085Z,91.32
2022-09-24T10:29:38.101Z,89.71
2022-09-24T10:30:38.089Z,91.57
2022-09-24T10:31:38.126Z,80.47
2022-09-24T10:32:38.107Z,89.68
2022-09-24T10:33:38.077Z,79.77
2022-09-24T10:34:38.078Z,81.49
2022-09-24T10:35:38.114Z,76.00
2022-09-24T10:36:38.107Z,61.98
2022-09-24T10:37:38.094Z,67.38
2022-09-24T10:38:38.090Z,66.03
2022-09-24T10:39:38.099Z,66.38
2022-09-24T10:40:38.245Z,62.07
2022-09-24T10:41:38.119Z,65.41
2022-09-24T10:42:38.102Z,52.07
2022-09-24T10:43:38.119Z,49.76
2022-09-24T10:44:38.110Z,44.23
2022-09-24T10:45:38.138Z,45.20
2022-09-24T10:46:38.199Z,48.69
2022-09-24T10:47:38.142Z,48.15
2022-09-24T10:48:38.134Z,44.16
2022-09-24T10:49:38.116Z,46.76
2022-09-24T10:50:38.163Z,46.61
2022-09-24T10:51:38.109Z,49.56
2022-09-24T10:52:38.135Z,48.04
2022-09-24T10:53:38.157Z,45.00
2022-09-24T10:54:38.128Z,45.23
2022-09-24T10:55:38.135Z,44.50
2022-09-24T10:56:41.033Z,47.08
2022-09-24T10:57:38.126Z,42.20
2022-09-24T10:58:38.159Z,44.43
2022-09-24T10:59:38.137Z,46.01
2022-09-24T11:00:38.157Z,50.39
2022-09-24T11:01:38.184Z,47.54
2022-09-24T11:02:38.195Z,46.86
2022-09-24T11:03:38.133Z,47.93
2022-09-24T11:04:39.006Z,47.31
2022-09-24T11:05:38.157Z,47.53
2022-09-24T11:06:38.145Z,50.81
2022-09-24T11:07:38.163Z,50.21
2022-09-24T11:08:38.154Z,48.17
2022-09-24T11:09:38.144Z,49.02
2022-09-24T11:10:38.162Z,48.18
2022-09-24T11:11:38.167Z,49.77
2022-09-24T11:12:38.151Z,51.14
2022-09-24T11:13:38.161Z,51.94
2022-09-24T11:14:38.161Z,49.60
2022-09-24T11:15:38.250Z,45.40
2022-09-24T11:16:38.178Z,50.41
2022-09-24T11:17:38.173Z,45.34
2022-09-24T11:18:38.161Z,46.85
2022-09-24T11:19:38.205Z,42.06
2022-09-24T11:20:38.169Z,42.58
2022-09-24T11:21:38.182Z,43.97
2022-09-24T11:22:38.192Z,44.83
2022-09-24T11:23:38.169Z,42.39
2022-09-24T11:24:38.170Z,43.14
2022-09-24T11:25:38.202Z,44.82
2022-09-24T11:26:38.160Z,40.76
2022-09-24T11:27:38.156Z,41.37
2022-09-24T11:28:38.179Z,40.88
2022-09-24T11:29:38.178Z,43.03
2022-09-24T11:30:38.201Z,42.44
2022-09-24T11:31:38.201Z,44.68
2022-09-24T11:32:38.191Z,49.54
2022-09-24T11:33:38.197Z,50.02
2022-09-24T11:34:38.177Z,47.27
2022-09-24T11:35:38.253Z,48.12
2022-09-24T11:36:38.191Z,49.74
2022-09-24T11:37:38.190Z,47.49
2022-09-24T11:38:38.206Z,49.20
2022-09-24T11:39:38.218Z,48.19
2022-09-24T11:40:38.334Z,48.72
2022-09-24T11:41:38.241Z,50.00
2022-09-24T11:42:38.250Z,52.38
2022-09-24T11:43:38.276Z,56.53
2022-09-24T11:44:38.281Z,56.02
2022-09-24T11:45:38.320Z,57.28
2022-09-24T11:46:38.336Z,57.82
2022-09-24T11:47:38.311Z,60.41
2022-09-24T11:48:38.341Z,65.87
2022-09-24T11:49:38.351Z,74.79
2022-09-24T11:50:39.864Z,77.65
2022-09-24T11:51:38.354Z,83.38
2022-09-24T11:52:38.391Z,85.94
2022-09-24T11:53:38.343Z,87.04
2022-09-24T11:54:38.386Z,95.14
2022-09-24T11:55:38.393Z,100.00
2022-09-24T11:56:38.360Z,88.84
2022-09-24T11:57:38.373Z,86.58
2022-09-24T11:58:38.374Z,85.82
2022-09-24T11:59:38.396Z,86.62
2022-09-24T12:00:38.393Z,89.19
2022-09-24T12:01:38.450Z,88.72
2022-09-24T12:02:38.470Z,87.06
2022-09-24T12:03:38.358Z,88.44
2022-09-24T12:04:38.373Z,91.69
2022-09-24T12:05:38.376Z,84.12
2022-09-24T12:06:38.395Z,81.86
2022-09-24T12:07:38.376Z,82.33
2022-09-24T12:08:38.393Z,80.22
2022-09-24T12:09:38.382Z,86.41
2022-09-24T12:10:38.398Z,85.74
2022-09-24T12:11:38.390Z,78.72
2022-09-24T12:12:38.386Z,77.64
2022-09-24T12:13:38.456Z,72.52
2022-09-24T12:14:38.400Z,68.46
2022-09-24T12:15:38.459Z,68.61
2022-09-24T12:16:38.515Z,66.47
2022-09-24T12:17:38.410Z,70.83
2022-09-24T12:18:38.385Z,61.61
2022-09-24T12:19:38.382Z,61.93
2022-09-24T12:20:38.411Z,63.78
2022-09-24T12:21:38.378Z,63.54
2022-09-24T12:22:38.442Z,68.26
2022-09-24T12:23:38.397Z,73.33
2022-09-24T12:24:38.418Z,68.13
2022-09-24T12:25:38.417Z,60.60
2022-09-24T12:26:38.402Z,63.77
2022-09-24T12:27:38.407Z,60.31
2022-09-24T12:28:38.405Z,65.51
2022-09-24T12:29:38.412Z,67.49
2022-09-24T12:30:38.425Z,72.77
2022-09-24T12:31:38.473Z,68.25
2022-09-24T12:32:38.443Z,67.59
2022-09-24T12:33:38.416Z,70.47
2022-09-24T12:34:38.409Z,71.61